createdAt,value
2018-11-22T12:17:48.090Z,100669.98
2018-11-22T12:20:17.514Z,100662.59
2018-11-22T12:22:47.826Z,100675.94
2018-11-22T12:25:18.981Z,100669.31
2018-11-22T12:27:49.402Z,100668.30
2018-11-22T12:30:21.579Z,100675.14
2018-11-22T12:32:55.979Z,100671.97
2018-11-22T12:35:30.400Z,100672.03
2018-11-22T12:38:04.649Z,100670.29
2018-11-22T12:40:33.613Z,100665.05
2018-11-22T12:43:03.070Z,100664.02
2018-11-22T12:45:32.442Z,100660.27
2018-11-22T12:48:01.389Z,100658.64
2018-11-22T12:50:30.393Z,100659.23
2018-11-22T12:52:59.371Z,100652.39
2018-11-22T12:55:28.350Z,100654.73
2018-11-22T12:57:57.273Z,100650.99
2018-11-22T13:00:26.307Z,100655.47
2018-11-22T13:02:55.299Z,100657.69
2018-11-22T13:05:24.447Z,100652.60
2018-11-22T13:07:53.387Z,100654.66
2018-11-22T13:10:22.374Z,100655.11
2018-11-22T13:12:51.339Z,100654.31
2018-11-22T13:15:21.259Z,100648.48
2018-11-22T13:17:50.298Z,100652.01
2018-11-22T13:20:20.503Z,100650.83
2018-11-22T13:22:49.494Z,100651.27
2018-11-22T13:25:19.927Z,100648.20
2018-11-22T13:27:49.007Z,100642.90
2018-11-22T13:30:22.590Z,100655.56
2018-11-22T13:32:52.222Z,100649.28
2018-11-22T13:35:21.284Z,100648.41
2018-11-22T13:37:51.274Z,100650.33
2018-11-22T13:40:20.233Z,100652.31
2018-11-22T13:42:50.146Z,100651.27
2018-11-22T13:45:21.463Z,100651.20
2018-11-22T13:47:51.639Z,100656.81
2018-11-22T13:50:24.316Z,100658.80
2018-11-22T13:52:54.838Z,100654.09
2018-11-22T13:55:23.852Z,100651.50
2018-11-22T13:57:52.830Z,100655.55
2018-11-22T14:00:23.276Z,100652.02
2018-11-22T14:02:54.704Z,100662.55
2018-11-22T14:05:23.696Z,100663.56
2018-11-22T14:07:52.618Z,100665.02
2018-11-22T14:10:21.991Z,100669.66
2018-11-22T14:12:51.179Z,100662.46
2018-11-22T14:15:21.416Z,100663.32
2018-11-22T14:17:51.742Z,100672.75
2018-11-22T14:20:22.165Z,100669.66
2018-11-22T14:22:51.156Z,100670.92
2018-11-22T14:25:20.103Z,100668.41
2018-11-22T14:27:50.077Z,100670.70
2018-11-22T14:30:20.295Z,100670.70
2018-11-22T14:32:50.210Z,100670.17
2018-11-22T14:35:20.027Z,100672.30
2018-11-22T14:37:49.014Z,100668.17
2018-11-22T14:40:20.369Z,100672.23
2018-11-22T14:42:50.075Z,100667.30
2018-11-22T14:45:19.105Z,100674.67
2018-11-22T14:47:49.186Z,100671.42
2018-11-22T14:50:24.114Z,100674.74
2018-11-22T14:52:56.513Z,100671.16
2018-11-22T14:55:25.567Z,100676.72
2018-11-22T14:57:54.493Z,100675.71
2018-11-22T15:00:24.320Z,100678.77
2018-11-22T15:02:53.264Z,100682.34
2018-11-22T15:05:22.200Z,100680.25
2018-11-22T15:07:51.263Z,100680.41
2018-11-22T15:10:20.486Z,100674.36
2018-11-22T15:12:49.988Z,100682.31
2018-11-22T15:15:20.468Z,100675.84
2018-11-22T15:17:49.422Z,100670.30
2018-11-22T15:20:19.406Z,100665.38
2018-11-22T15:22:49.146Z,100662.12
2018-11-22T15:25:19.767Z,100666.98
2018-11-22T15:27:48.736Z,100673.02
2018-11-22T15:30:19.315Z,100668.52
2018-11-22T15:32:48.236Z,100670.08
2018-11-22T15:35:19.408Z,100665.30
2018-11-22T15:37:48.653Z,100672.29
2018-11-22T15:40:19.977Z,100673.14
2018-11-22T15:42:50.502Z,100667.90
2018-11-22T15:45:20.826Z,100667.05
2018-11-22T15:47:49.754Z,100675.88
2018-11-22T15:50:20.041Z,100676.08
2018-11-22T15:52:49.123Z,100672.94
2018-11-22T15:55:21.162Z,100679.61
2018-11-22T15:57:48.863Z,100669.61
2018-11-22T16:00:22.768Z,100668.26
2018-11-22T16:02:52.296Z,100678.34
2018-11-22T16:05:21.807Z,100672.91
2018-11-22T16:07:50.769Z,100673.88
2018-11-22T16:10:26.392Z,100674.08
2018-11-22T16:12:51.984Z,100676.57
2018-11-22T16:15:23.873Z,100675.04
2018-11-22T16:17:52.802Z,100680.63
2018-11-22T16:20:22.570Z,100681.95
2018-11-22T16:22:51.497Z,100682.02
2018-11-22T16:25:20.422Z,100680.05
2018-11-22T16:27:49.335Z,100679.73
2018-11-22T16:30:20.834Z,100682.70
2018-11-22T16:32:49.982Z,100677.41
2018-11-22T16:35:19.666Z,100685.89
2018-11-22T16:37:48.909Z,100683.99
2018-11-22T16:40:20.294Z,100687.32
2018-11-22T16:42:50.207Z,100680.14
2018-11-22T16:45:28.584Z,100685.34
2018-11-22T16:47:58.739Z,100679.66
2018-11-22T16:50:28.886Z,100679.19
2018-11-22T16:52:58.105Z,100677.53
2018-11-22T16:55:27.676Z,100685.39
2018-11-22T16:57:58.207Z,100682.98
2018-11-22T17:00:29.430Z,100681.95
2018-11-22T17:02:59.983Z,100684.47
2018-11-22T17:05:29.269Z,100681.27
2018-11-22T17:07:58.577Z,100678.34
2018-11-22T17:10:28.701Z,100684.75
2018-11-22T17:12:58.836Z,100684.75
2018-11-22T17:15:30.405Z,100690.77
2018-11-22T17:18:00.909Z,100686.20
2018-11-22T17:20:30.722Z,100686.72
2018-11-22T17:22:59.943Z,100692.54
2018-11-22T17:25:30.293Z,100687.73
2018-11-22T17:28:01.703Z,100688.25
2018-11-22T17:30:35.225Z,100690.90
2018-11-22T17:33:04.617Z,100698.64
2018-11-22T17:35:33.936Z,100688.45
2018-11-22T17:38:04.264Z,100695.55
2018-11-22T17:40:34.893Z,100697.15
2018-11-22T17:43:03.999Z,100697.03
2018-11-22T17:45:35.583Z,100698.76
2018-11-22T17:48:05.183Z,100693.42
2018-11-22T17:50:36.017Z,100685.28
2018-11-22T17:53:05.504Z,100685.41
2018-11-22T17:55:35.113Z,100684.80
2018-11-22T17:58:04.375Z,100682.95
2018-11-22T18:00:34.973Z,100682.95
2018-11-22T18:03:05.746Z,100684.52
2018-11-22T18:05:34.948Z,100680.27
2018-11-22T18:08:04.057Z,100683.31
2018-11-22T18:10:37.406Z,100682.35
2018-11-22T18:13:06.461Z,100682.80
2018-11-22T18:15:39.929Z,100684.48
2018-11-22T18:18:09.057Z,100685.59
2018-11-22T18:20:38.044Z,100681.16
2018-11-22T18:23:11.487Z,100682.71
2018-11-22T18:25:36.076Z,100683.80
2018-11-22T18:28:05.102Z,100682.71
2018-11-22T18:30:34.878Z,100687.92
2018-11-22T18:33:05.278Z,100685.32
2018-11-22T18:35:34.382Z,100681.78
2018-11-22T18:38:03.694Z,100684.34
2018-11-22T18:40:34.671Z,100687.77
2018-11-22T18:43:04.305Z,100679.94
2018-11-22T18:45:34.683Z,100680.38
2018-11-22T18:48:04.645Z,100682.08
2018-11-22T18:50:34.588Z,100680.02
2018-11-22T18:53:03.655Z,100683.23
2018-11-22T18:55:32.719Z,100675.13
2018-11-22T18:58:01.808Z,100681.40
2018-11-22T19:00:32.036Z,100674.55
2018-11-22T19:03:02.632Z,100675.33
2018-11-22T19:05:31.817Z,100678.72
2018-11-22T19:08:01.255Z,100679.35
2018-11-22T19:10:31.641Z,100677.56
2018-11-22T19:13:01.876Z,100680.34
2018-11-22T19:15:32.519Z,100684.07
2018-11-22T19:18:01.714Z,100680.14
2018-11-22T19:20:32.870Z,100690.94
2018-11-22T19:23:02.766Z,100684.47
2018-11-22T19:25:31.806Z,100689.66
2018-11-22T19:28:01.653Z,100692.62
2018-11-22T19:30:37.039Z,100687.45
2018-11-22T19:33:02.510Z,100692.06
2018-11-22T19:35:33.145Z,100683.23
2018-11-22T19:38:03.247Z,100687.92
2018-11-22T19:40:34.038Z,100687.84
2018-11-22T19:44:27.512Z,100684.59
2018-11-22T19:46:56.513Z,100687.41
2018-11-22T19:49:25.663Z,100695.18
2018-11-22T19:51:54.638Z,100702.08
2018-11-22T19:54:23.695Z,100698.98
2018-11-22T19:56:52.767Z,100697.22
2018-11-22T19:59:22.494Z,100698.86
2018-11-22T20:01:51.528Z,100685.80
2018-11-22T20:04:20.758Z,100701.80
2018-11-22T20:06:49.895Z,100698.90
2018-11-22T20:09:18.875Z,100698.37
2018-11-22T20:11:48.498Z,100698.98
2018-11-22T20:14:17.774Z,100704.56
2018-11-22T20:16:47.078Z,100701.63
2018-11-22T20:19:16.071Z,100700.39
2018-11-22T20:21:45.076Z,100701.55
2018-11-22T20:24:14.223Z,100702.61
2018-11-22T20:26:43.308Z,100709.08
2018-11-22T20:29:12.288Z,100703.39
2018-11-22T20:31:41.275Z,100707.30
2018-11-22T20:34:10.321Z,100711.61
2018-11-22T20:36:39.278Z,100707.92
2018-11-22T20:39:09.756Z,100711.06
2018-11-22T20:41:39.036Z,100701.75
2018-11-22T20:44:08.387Z,100699.09
2018-11-22T20:46:37.551Z,100701.02
2018-11-22T20:53:57.638Z,100705.16
2018-11-22T20:56:26.661Z,100705.48
2018-11-22T20:58:55.918Z,100707.38
2018-11-22T21:01:24.881Z,100703.41
2018-11-22T21:03:54.942Z,100709.02
2018-11-22T21:06:25.513Z,100700.88
2018-11-22T21:08:54.550Z,100704.41
2018-11-22T21:11:23.573Z,100707.26
2018-11-22T21:13:52.583Z,100705.33
2018-11-22T21:16:21.678Z,100709.30
2018-11-22T21:18:50.748Z,100704.44
2018-11-22T21:21:19.836Z,100701.19
2018-11-22T21:23:48.917Z,100705.77
2018-11-22T21:26:18.324Z,100709.82
2018-11-22T21:28:47.361Z,100712.52
2018-11-22T21:31:16.671Z,100717.09
2018-11-22T21:33:45.704Z,100713.32
2018-11-22T21:36:14.723Z,100706.58
2018-11-22T21:38:43.791Z,100710.47
2018-11-22T21:41:13.829Z,100717.44
2018-11-22T21:43:42.958Z,100718.45
2018-11-22T21:46:12.022Z,100722.94
2018-11-22T21:48:41.036Z,100719.80
2018-11-22T21:51:10.212Z,100724.17
2018-11-22T21:53:39.372Z,100724.34
2018-11-22T21:56:08.387Z,100724.52
2018-11-22T21:58:37.373Z,100721.41
2018-11-22T22:01:06.322Z,100723.45
2018-11-22T22:03:35.545Z,100724.23
2018-11-22T22:06:04.485Z,100719.82
2018-11-22T22:08:33.480Z,100715.73
2018-11-22T22:11:02.440Z,100716.61
2018-11-22T22:13:31.442Z,100710.16
2018-11-22T22:16:00.387Z,100706.75
2018-11-22T22:18:29.368Z,100706.62
2018-11-22T22:20:59.531Z,100705.94
2018-11-22T22:23:28.504Z,100710.55
2018-11-22T22:25:57.486Z,100711.28
2018-11-22T22:28:26.422Z,100715.88
2018-11-22T22:30:55.657Z,100712.63
2018-11-22T22:33:24.582Z,100708.17
2018-11-22T22:35:53.518Z,100712.59
2018-11-22T22:38:22.449Z,100714.87
2018-11-22T22:40:51.426Z,100713.88
2018-11-22T22:43:20.447Z,100711.23
2018-11-22T22:45:49.423Z,100711.66
2018-11-22T22:48:18.413Z,100709.30
2018-11-22T22:50:47.450Z,100714.48
2018-11-22T22:53:16.523Z,100717.12
2018-11-22T22:55:45.653Z,100714.19
2018-11-22T22:58:14.717Z,100707.30
2018-11-22T23:00:49.352Z,100714.44
2018-11-22T23:03:18.478Z,100716.25
2018-11-22T23:05:47.414Z,100716.89
2018-11-22T23:08:16.454Z,100714.09
2018-11-22T23:10:45.392Z,100723.79
2018-11-22T23:13:15.013Z,100712.72
2018-11-22T23:15:43.941Z,100717.09
2018-11-22T23:18:12.868Z,100710.11
2018-11-22T23:20:41.790Z,100710.07
2018-11-22T23:23:10.776Z,100708.06
2018-11-22T23:25:39.760Z,100708.23
2018-11-22T23:28:08.707Z,100704.05
2018-11-22T23:30:37.678Z,100702.56
2018-11-22T23:33:08.016Z,100696.67
2018-11-22T23:35:36.963Z,100701.69
2018-11-22T23:38:05.947Z,100703.41
2018-11-22T23:40:35.525Z,100701.48
2018-11-22T23:43:04.625Z,100698.23
2018-11-22T23:45:34.026Z,100708.47
2018-11-22T23:48:02.965Z,100711.63
2018-11-22T23:50:33.020Z,100709.66
2018-11-22T23:53:03.242Z,100703.89
2018-11-22T23:55:32.198Z,100709.95
2018-11-22T23:58:01.184Z,100708.18
